Terminal Aerodrome Forecast
Issued by NWS Cleveland, OH

Home | Current Version | Previous Version | Text Only | Print | Product List | Glossary Off
Versions: 1 2 3 4 5 6 7 8 9 10 11 12 13 14 15 16 17 18 19

000
FTUS41 KCLE 161100
TAFMFD
TAF
KMFD 161124Z 1612/1712 31003KT 5SM BR OVC003
      TEMPO 1613/1614 BKN012
     FM161400 35006KT 4SM BR SCT012 OVC025
      TEMPO 1614/1616 BKN012
     FM161600 33006KT P6SM BKN035
     FM161800 33005KT P6SM SCT035
     FM170200 26003KT P6SM SKC
     FM170900 19003KT 4SM BR SKC=

USA.gov is the U.S. government's official web portal to all federal, state and local government web resources and services.